sensor_id;sensor_type;location;lat;lon;timestamp;pressure;altitude;pressure_sealevel;temperature;humidity
76864;BME280;65834;52.364;9.754;2023-03-17T00:00:47;100478.50;;;6.62;nan
76864;BME280;65834;52.364;9.754;2023-03-17T00:03:20;100481.69;;;6.65;nan
76864;BME280;65834;52.364;9.754;2023-03-17T00:05:52;100479.00;;;6.57;nan
76864;BME280;65834;52.364;9.754;2023-03-17T00:08:25;100476.13;;;6.59;nan
76864;BME280;65834;52.364;9.754;2023-03-17T00:10:58;100474.16;;;6.61;nan
76864;BME280;65834;52.364;9.754;2023-03-17T00:13:28;100464.41;;;6.60;nan
76864;BME280;65834;52.364;9.754;2023-03-17T00:16:02;100462.03;;;6.57;nan
76864;BME280;65834;52.364;9.754;2023-03-17T00:18:33;100458.84;;;6.53;nan
76864;BME280;65834;52.364;9.754;2023-03-17T00:21:03;100460.53;;;6.46;nan
76864;BME280;65834;52.364;9.754;2023-03-17T01:18:48;100506.03;;;6.47;nan
76864;BME280;65834;52.364;9.754;2023-03-17T01:21:17;100458.41;;;6.08;nan
76864;BME280;65834;52.364;9.754;2023-03-17T01:23:50;100462.13;;;6.15;nan
76864;BME280;65834;52.364;9.754;2023-03-17T01:26:23;100461.09;;;6.16;nan
76864;BME280;65834;52.364;9.754;2023-03-17T01:28:53;100464.09;;;6.13;nan
76864;BME280;65834;52.364;9.754;2023-03-17T01:31:23;100461.41;;;6.13;nan
76864;BME280;65834;52.364;9.754;2023-03-17T01:33:52;100468.16;;;6.17;nan
76864;BME280;65834;52.364;9.754;2023-03-17T01:36:22;100470.50;;;6.20;nan
76864;BME280;65834;52.364;9.754;2023-03-17T01:38:52;100461.66;;;6.27;nan
76864;BME280;65834;52.364;9.754;2023-03-17T01:41:24;100457.59;;;6.23;nan
76864;BME280;65834;52.364;9.754;2023-03-17T01:43:53;100458.28;;;6.25;nan
76864;BME280;65834;52.364;9.754;2023-03-17T01:46:25;100450.06;;;6.27;nan
76864;BME280;65834;52.364;9.754;2023-03-17T01:49:01;100442.16;;;6.25;nan
76864;BME280;65834;52.364;9.754;2023-03-17T01:51:35;100441.03;;;6.36;nan
76864;BME280;65834;52.364;9.754;2023-03-17T01:54:09;100429.06;;;6.22;nan
76864;BME280;65834;52.364;9.754;2023-03-17T01:56:44;100425.19;;;6.17;nan
76864;BME280;65834;52.364;9.754;2023-03-17T02:44:32;100430.19;;;6.04;nan
76864;BME280;65834;52.364;9.754;2023-03-17T02:47:02;100433.56;;;6.06;nan
76864;BME280;65834;52.364;9.754;2023-03-17T02:49:32;100435.72;;;6.02;nan
76864;BME280;65834;52.364;9.754;2023-03-17T02:52:06;100440.41;;;6.00;nan
76864;BME280;65834;52.364;9.754;2023-03-17T02:54:36;100432.88;;;6.04;nan
76864;BME280;65834;52.364;9.754;2023-03-17T02:57:06;100426.31;;;6.06;nan
76864;BME280;65834;52.364;9.754;2023-03-17T02:59:36;100431.75;;;6.14;nan
76864;BME280;65834;52.364;9.754;2023-03-17T03:02:06;100407.06;;;6.19;nan
76864;BME280;65834;52.364;9.754;2023-03-17T03:04:35;100402.88;;;6.16;nan
76864;BME280;65834;52.364;9.754;2023-03-17T03:07:08;100389.13;;;6.19;nan
76864;BME280;65834;52.364;9.754;2023-03-17T03:09:38;100387.47;;;6.26;nan
76864;BME280;65834;52.364;9.754;2023-03-17T03:12:07;100402.72;;;6.26;nan
76864;BME280;65834;52.364;9.754;2023-03-17T03:14:37;100413.66;;;6.24;nan
76864;BME280;65834;52.364;9.754;2023-03-17T03:17:07;100406.25;;;6.26;nan
76864;BME280;65834;52.364;9.754;2023-03-17T03:19:37;100404.22;;;6.20;nan
76864;BME280;65834;52.364;9.754;2023-03-17T03:22:09;100404.03;;;6.22;nan
76864;BME280;65834;52.364;9.754;2023-03-17T03:24:39;100399.19;;;6.17;nan
76864;BME280;65834;52.364;9.754;2023-03-17T03:27:09;100401.50;;;6.12;nan
76864;BME280;65834;52.364;9.754;2023-03-17T03:29:39;100415.25;;;6.09;nan
76864;BME280;65834;52.364;9.754;2023-03-17T03:32:09;100418.78;;;6.10;nan
76864;BME280;65834;52.364;9.754;2023-03-17T03:34:38;100409.41;;;6.14;nan
76864;BME280;65834;52.364;9.754;2023-03-17T03:37:10;100403.72;;;6.17;nan
76864;BME280;65834;52.364;9.754;2023-03-17T03:39:40;100407.06;;;6.11;nan
76864;BME280;65834;52.364;9.754;2023-03-17T03:42:10;100404.53;;;6.09;nan
76864;BME280;65834;52.364;9.754;2023-03-17T03:44:40;100403.00;;;5.98;nan
76864;BME280;65834;52.364;9.754;2023-03-17T03:47:10;100402.81;;;6.00;nan
76864;BME280;65834;52.364;9.754;2023-03-17T03:49:39;100391.91;;;5.93;nan
76864;BME280;65834;52.364;9.754;2023-03-17T03:52:12;100397.63;;;5.90;nan
76864;BME280;65834;52.364;9.754;2023-03-17T03:54:41;100389.38;;;5.92;nan
76864;BME280;65834;52.364;9.754;2023-03-17T03:57:11;100384.88;;;5.92;nan
76864;BME280;65834;52.364;9.754;2023-03-17T03:59:40;100379.25;;;5.78;nan
76864;BME280;65834;52.364;9.754;2023-03-17T07:27:19;100351.78;;;7.99;nan
76864;BME280;65834;52.364;9.754;2023-03-17T07:29:53;100306.66;;;7.70;nan
76864;BME280;65834;52.364;9.754;2023-03-17T07:32:23;100299.16;;;7.88;nan
76864;BME280;65834;52.364;9.754;2023-03-17T07:34:52;100310.28;;;7.85;nan
76864;BME280;65834;52.364;9.754;2023-03-17T07:37:22;100301.31;;;7.93;nan
76864;BME280;65834;52.364;9.754;2023-03-17T07:47:22;100301.75;;;8.27;nan
76864;BME280;65834;52.364;9.754;2023-03-17T07:49:52;100301.94;;;8.48;nan
76864;BME280;65834;52.364;9.754;2023-03-17T07:52:22;100298.06;;;8.65;nan
76864;BME280;65834;52.364;9.754;2023-03-17T07:54:52;100305.34;;;8.80;nan
76864;BME280;65834;52.364;9.754;2023-03-17T07:57:23;100303.69;;;8.93;nan
76864;BME280;65834;52.364;9.754;2023-03-17T07:59:56;100294.00;;;8.99;nan
76864;BME280;65834;52.364;9.754;2023-03-17T08:02:36;100289.28;;;9.01;nan
76864;BME280;65834;52.364;9.754;2023-03-17T08:05:08;100279.31;;;9.01;nan
76864;BME280;65834;52.364;9.754;2023-03-17T08:07:38;100273.75;;;9.03;nan
76864;BME280;65834;52.364;9.754;2023-03-17T08:10:10;100279.69;;;9.13;nan
76864;BME280;65834;52.364;9.754;2023-03-17T08:12:40;100265.47;;;9.19;nan
76864;BME280;65834;52.364;9.754;2023-03-17T08:15:12;100271.75;;;9.26;nan
76864;BME280;65834;52.364;9.754;2023-03-17T08:17:42;100281.72;;;9.40;nan
76864;BME280;65834;52.364;9.754;2023-03-17T08:20:12;100280.84;;;9.54;nan
76864;BME280;65834;52.364;9.754;2023-03-17T08:22:41;100281.31;;;9.58;nan
76864;BME280;65834;52.364;9.754;2023-03-17T08:25:11;100281.53;;;9.56;nan
76864;BME280;65834;52.364;9.754;2023-03-17T08:27:40;100276.41;;;9.47;nan
76864;BME280;65834;52.364;9.754;2023-03-17T08:30:13;100276.50;;;9.53;nan
76864;BME280;65834;52.364;9.754;2023-03-17T08:32:43;100290.75;;;9.47;nan
76864;BME280;65834;52.364;9.754;2023-03-17T08:35:14;100300.13;;;9.51;nan
76864;BME280;65834;52.364;9.754;2023-03-17T08:37:44;100285.22;;;9.55;nan
76864;BME280;65834;52.364;9.754;2023-03-17T08:42:47;100291.31;;;9.78;nan
76864;BME280;65834;52.364;9.754;2023-03-17T08:45:20;100290.69;;;9.76;nan
76864;BME280;65834;52.364;9.754;2023-03-17T08:47:49;100288.59;;;9.93;nan
76864;BME280;65834;52.364;9.754;2023-03-17T08:52:50;100290.00;;;10.10;nan
76864;BME280;65834;52.364;9.754;2023-03-17T08:55:20;100282.72;;;10.11;nan
76864;BME280;65834;52.364;9.754;2023-03-17T08:57:50;100274.00;;;10.09;nan
76864;BME280;65834;52.364;9.754;2023-03-17T09:00:23;100282.00;;;10.17;nan
76864;BME280;65834;52.364;9.754;2023-03-17T09:02:53;100263.78;;;10.25;nan
76864;BME280;65834;52.364;9.754;2023-03-17T09:05:24;100265.91;;;10.30;nan
76864;BME280;65834;52.364;9.754;2023-03-17T09:07:53;100264.34;;;10.42;nan
76864;BME280;65834;52.364;9.754;2023-03-17T09:10:23;100268.91;;;10.42;nan
76864;BME280;65834;52.364;9.754;2023-03-17T09:12:52;100270.16;;;10.39;nan
76864;BME280;65834;52.364;9.754;2023-03-17T09:15:31;100271.41;;;10.43;nan
76864;BME280;65834;52.364;9.754;2023-03-17T09:18:02;100262.13;;;10.52;nan
76864;BME280;65834;52.364;9.754;2023-03-17T09:20:32;100264.44;;;10.55;nan
76864;BME280;65834;52.364;9.754;2023-03-17T09:23:04;100264.69;;;10.60;nan
76864;BME280;65834;52.364;9.754;2023-03-17T09:25:36;100260.56;;;10.64;nan
76864;BME280;65834;52.364;9.754;2023-03-17T09:28:07;100258.75;;;10.71;nan
76864;BME280;65834;52.364;9.754;2023-03-17T09:30:41;100254.78;;;10.74;nan
76864;BME280;65834;52.364;9.754;2023-03-17T09:33:11;100244.47;;;10.84;nan
76864;BME280;65834;52.364;9.754;2023-03-17T09:35:41;100252.41;;;10.92;nan
76864;BME280;65834;52.364;9.754;2023-03-17T09:38:11;100255.03;;;11.07;nan
76864;BME280;65834;52.364;9.754;2023-03-17T09:40:45;100249.22;;;11.10;nan
76864;BME280;65834;52.364;9.754;2023-03-17T09:43:25;100259.69;;;11.19;nan
76864;BME280;65834;52.364;9.754;2023-03-17T09:46:07;100264.06;;;11.27;nan
76864;BME280;65834;52.364;9.754;2023-03-17T09:48:49;100266.44;;;11.43;nan
76864;BME280;65834;52.364;9.754;2023-03-17T09:51:21;100271.06;;;11.49;nan
76864;BME280;65834;52.364;9.754;2023-03-17T09:53:55;100265.84;;;11.54;nan
76864;BME280;65834;52.364;9.754;2023-03-17T09:56:27;100270.66;;;11.52;nan
76864;BME280;65834;52.364;9.754;2023-03-17T09:59:03;100274.63;;;11.56;nan
76864;BME280;65834;52.364;9.754;2023-03-17T10:01:39;100277.75;;;11.53;nan
76864;BME280;65834;52.364;9.754;2023-03-17T10:04:10;100274.41;;;11.58;nan
76864;BME280;65834;52.364;9.754;2023-03-17T10:06:41;100281.97;;;11.62;nan
76864;BME280;65834;52.364;9.754;2023-03-17T10:09:20;100284.03;;;11.67;nan
76864;BME280;65834;52.364;9.754;2023-03-17T10:12:00;100268.88;;;11.72;nan
76864;BME280;65834;52.364;9.754;2023-03-17T10:14:44;100276.44;;;11.83;nan
76864;BME280;65834;52.364;9.754;2023-03-17T10:17:21;100273.09;;;11.88;nan
76864;BME280;65834;52.364;9.754;2023-03-17T10:19:55;100265.88;;;12.15;nan
76864;BME280;65834;52.364;9.754;2023-03-17T10:22:29;100269.66;;;12.33;nan
76864;BME280;65834;52.364;9.754;2023-03-17T10:25:03;100274.22;;;12.46;nan
76864;BME280;65834;52.364;9.754;2023-03-17T10:27:36;100268.38;;;12.49;nan
76864;BME280;65834;52.364;9.754;2023-03-17T10:30:13;100269.63;;;12.60;nan
76864;BME280;65834;52.364;9.754;2023-03-17T10:32:45;100261.09;;;12.76;nan
76864;BME280;65834;52.364;9.754;2023-03-17T10:35:17;100264.59;;;12.83;nan
76864;BME280;65834;52.364;9.754;2023-03-17T10:37:48;100265.00;;;12.99;nan
76864;BME280;65834;52.364;9.754;2023-03-17T10:40:34;100256.63;;;13.21;nan
76864;BME280;65834;52.364;9.754;2023-03-17T10:43:06;100261.16;;;13.46;nan
76864;BME280;65834;52.364;9.754;2023-03-17T10:45:38;100263.28;;;13.38;nan
76864;BME280;65834;52.364;9.754;2023-03-17T10:48:18;100259.91;;;13.42;nan
76864;BME280;65834;52.364;9.754;2023-03-17T10:50:47;100259.66;;;13.50;nan
76864;BME280;65834;52.364;9.754;2023-03-17T10:53:20;100261.00;;;13.73;nan
76864;BME280;65834;52.364;9.754;2023-03-17T10:55:57;100271.47;;;13.69;nan
76864;BME280;65834;52.364;9.754;2023-03-17T10:58:46;100267.53;;;13.72;nan
76864;BME280;65834;52.364;9.754;2023-03-17T11:01:20;100263.44;;;13.87;nan
76864;BME280;65834;52.364;9.754;2023-03-17T11:03:53;100271.34;;;13.95;nan
76864;BME280;65834;52.364;9.754;2023-03-17T11:06:31;100273.34;;;14.13;nan
76864;BME280;65834;52.364;9.754;2023-03-17T11:09:07;100287.06;;;14.25;nan
76864;BME280;65834;52.364;9.754;2023-03-17T11:11:43;100273.91;;;14.53;nan
76864;BME280;65834;52.364;9.754;2023-03-17T11:14:14;100272.09;;;14.72;nan
76864;BME280;65834;52.364;9.754;2023-03-17T11:16:51;100268.56;;;14.64;nan
76864;BME280;65834;52.364;9.754;2023-03-17T11:19:30;100259.78;;;14.87;nan
76864;BME280;65834;52.364;9.754;2023-03-17T11:22:09;100258.38;;;15.03;nan
76864;BME280;65834;52.364;9.754;2023-03-17T11:24:49;100260.53;;;15.19;nan
76864;BME280;65834;52.364;9.754;2023-03-17T11:27:28;100256.72;;;15.38;nan
76864;BME280;65834;52.364;9.754;2023-03-17T11:30:14;100262.72;;;15.65;nan
76864;BME280;65834;52.364;9.754;2023-03-17T11:32:49;100258.88;;;16.02;nan
76864;BME280;65834;52.364;9.754;2023-03-17T11:35:31;100250.69;;;16.02;nan
76864;BME280;65834;52.364;9.754;2023-03-17T11:38:11;100253.34;;;16.20;nan
76864;BME280;65834;52.364;9.754;2023-03-17T11:43:40;100233.34;;;16.50;nan
76864;BME280;65834;52.364;9.754;2023-03-17T11:46:15;100222.69;;;16.71;nan
76864;BME280;65834;52.364;9.754;2023-03-17T11:48:51;100224.38;;;16.72;nan
76864;BME280;65834;52.364;9.754;2023-03-17T11:51:33;100217.84;;;16.85;nan
76864;BME280;65834;52.364;9.754;2023-03-17T11:54:10;100207.38;;;16.59;nan
76864;BME280;65834;52.364;9.754;2023-03-17T11:56:44;100210.00;;;16.77;nan
76864;BME280;65834;52.364;9.754;2023-03-17T11:59:24;100207.22;;;17.12;nan
76864;BME280;65834;52.364;9.754;2023-03-17T12:02:00;100207.34;;;17.28;nan
76864;BME280;65834;52.364;9.754;2023-03-17T12:04:34;100218.88;;;17.07;nan
76864;BME280;65834;52.364;9.754;2023-03-17T12:07:14;100218.31;;;17.85;nan
76864;BME280;65834;52.364;9.754;2023-03-17T12:09:53;100212.38;;;17.88;nan
76864;BME280;65834;52.364;9.754;2023-03-17T12:12:30;100218.81;;;17.82;nan
76864;BME280;65834;52.364;9.754;2023-03-17T12:15:09;100209.53;;;18.11;nan
76864;BME280;65834;52.364;9.754;2023-03-17T12:17:47;100211.84;;;17.74;nan
76864;BME280;65834;52.364;9.754;2023-03-17T12:20:23;100216.75;;;18.17;nan
76864;BME280;65834;52.364;9.754;2023-03-17T12:23:02;100218.03;;;18.76;nan
76864;BME280;65834;52.364;9.754;2023-03-17T12:25:39;100206.84;;;19.00;nan
76864;BME280;65834;52.364;9.754;2023-03-17T12:28:14;100210.75;;;19.42;nan
76864;BME280;65834;52.364;9.754;2023-03-17T12:30:48;100207.91;;;19.80;nan
76864;BME280;65834;52.364;9.754;2023-03-17T12:33:23;100218.53;;;19.72;nan
76864;BME280;65834;52.364;9.754;2023-03-17T12:35:57;100214.75;;;21.52;nan
76864;BME280;65834;52.364;9.754;2023-03-17T12:38:34;100203.41;;;21.38;nan
76864;BME280;65834;52.364;9.754;2023-03-17T12:41:27;100208.03;;;20.86;nan
76864;BME280;65834;52.364;9.754;2023-03-17T12:44:16;100203.53;;;20.33;nan
76864;BME280;65834;52.364;9.754;2023-03-17T12:47:05;100197.97;;;20.28;nan
76864;BME280;65834;52.364;9.754;2023-03-17T12:49:52;100194.72;;;20.68;nan
76864;BME280;65834;52.364;9.754;2023-03-17T12:52:39;100198.84;;;21.64;nan
76864;BME280;65834;52.364;9.754;2023-03-17T12:55:14;100192.94;;;22.78;nan
76864;BME280;65834;52.364;9.754;2023-03-17T12:57:46;100205.69;;;23.53;nan
76864;BME280;65834;52.364;9.754;2023-03-17T13:00:28;100197.19;;;23.45;nan
76864;BME280;65834;52.364;9.754;2023-03-17T13:03:11;100198.41;;;23.03;nan
76864;BME280;65834;52.364;9.754;2023-03-17T13:05:44;100201.47;;;22.41;nan
76864;BME280;65834;52.364;9.754;2023-03-17T13:08:22;100194.59;;;22.29;nan
76864;BME280;65834;52.364;9.754;2023-03-17T13:11:17;100188.16;;;21.88;nan
76864;BME280;65834;52.364;9.754;2023-03-17T13:14:12;100186.03;;;22.50;nan
76864;BME280;65834;52.364;9.754;2023-03-17T13:16:44;100179.97;;;22.53;nan
76864;BME280;65834;52.364;9.754;2023-03-17T13:19:18;100180.22;;;22.06;nan
76864;BME280;65834;52.364;9.754;2023-03-17T13:24:44;100175.47;;;21.82;nan
76864;BME280;65834;52.364;9.754;2023-03-17T13:27:44;100181.47;;;21.63;nan
76864;BME280;65834;52.364;9.754;2023-03-17T13:30:48;100166.47;;;22.37;nan
76864;BME280;65834;52.364;9.754;2023-03-17T13:33:28;100165.25;;;23.18;nan
76864;BME280;65834;52.364;9.754;2023-03-17T13:39:20;100172.53;;;22.19;nan
76864;BME280;65834;52.364;9.754;2023-03-17T13:42:07;100175.84;;;22.26;nan
76864;BME280;65834;52.364;9.754;2023-03-17T13:45:02;100167.25;;;21.87;nan
76864;BME280;65834;52.364;9.754;2023-03-17T13:47:35;100170.34;;;22.05;nan
76864;BME280;65834;52.364;9.754;2023-03-17T13:50:12;100165.63;;;22.01;nan
76864;BME280;65834;52.364;9.754;2023-03-17T13:52:46;100163.19;;;21.32;nan
76864;BME280;65834;52.364;9.754;2023-03-17T13:55:36;100154.16;;;21.37;nan
76864;BME280;65834;52.364;9.754;2023-03-17T13:58:22;100146.00;;;21.05;nan
76864;BME280;65834;52.364;9.754;2023-03-17T14:01:02;100153.25;;;21.16;nan
76864;BME280;65834;52.364;9.754;2023-03-17T14:03:40;100143.09;;;20.75;nan
76864;BME280;65834;52.364;9.754;2023-03-17T14:06:11;100140.78;;;20.57;nan
76864;BME280;65834;52.364;9.754;2023-03-17T14:08:45;100135.50;;;20.18;nan
76864;BME280;65834;52.364;9.754;2023-03-17T14:11:21;100133.59;;;19.87;nan
76864;BME280;65834;52.364;9.754;2023-03-17T14:14:06;100132.66;;;19.76;nan
76864;BME280;65834;52.364;9.754;2023-03-17T14:16:51;100128.88;;;19.82;nan
76864;BME280;65834;52.364;9.754;2023-03-17T14:19:25;100126.75;;;19.63;nan
76864;BME280;65834;52.364;9.754;2023-03-17T14:22:01;100125.34;;;19.38;nan
76864;BME280;65834;52.364;9.754;2023-03-17T14:24:38;100123.13;;;19.14;nan
76864;BME280;65834;52.364;9.754;2023-03-17T14:27:11;100127.91;;;18.80;nan
76864;BME280;65834;52.364;9.754;2023-03-17T14:29:40;100119.66;;;18.58;nan
76864;BME280;65834;52.364;9.754;2023-03-17T14:32:17;100121.63;;;18.46;nan
76864;BME280;65834;52.364;9.754;2023-03-17T14:34:53;100121.06;;;18.44;nan
76864;BME280;65834;52.364;9.754;2023-03-17T14:37:23;100121.06;;;18.27;nan
76864;BME280;65834;52.364;9.754;2023-03-17T14:39:55;100120.19;;;18.05;nan
76864;BME280;65834;52.364;9.754;2023-03-17T14:42:26;100114.16;;;17.75;nan
76864;BME280;65834;52.364;9.754;2023-03-17T14:45:00;100109.69;;;17.69;nan
76864;BME280;65834;52.364;9.754;2023-03-17T14:47:36;100103.06;;;17.65;nan
76864;BME280;65834;52.364;9.754;2023-03-17T14:50:15;100095.84;;;17.75;nan
76864;BME280;65834;52.364;9.754;2023-03-17T14:52:48;100094.97;;;17.86;nan
76864;BME280;65834;52.364;9.754;2023-03-17T14:55:18;100096.03;;;17.85;nan
76864;BME280;65834;52.364;9.754;2023-03-17T14:57:50;100091.53;;;17.79;nan
76864;BME280;65834;52.364;9.754;2023-03-17T15:00:30;100088.00;;;17.96;nan
76864;BME280;65834;52.364;9.754;2023-03-17T15:03:16;100089.75;;;18.02;nan
76864;BME280;65834;52.364;9.754;2023-03-17T15:05:47;100088.34;;;17.99;nan
76864;BME280;65834;52.364;9.754;2023-03-17T15:08:34;100095.69;;;17.82;nan
76864;BME280;65834;52.364;9.754;2023-03-17T15:11:07;100094.06;;;17.53;nan
76864;BME280;65834;52.364;9.754;2023-03-17T15:13:37;100090.22;;;17.37;nan
76864;BME280;65834;52.364;9.754;2023-03-17T15:16:15;100089.00;;;17.16;nan
76864;BME280;65834;52.364;9.754;2023-03-17T15:18:52;100081.03;;;17.15;nan
76864;BME280;65834;52.364;9.754;2023-03-17T15:21:27;100081.84;;;17.15;nan
76864;BME280;65834;52.364;9.754;2023-03-17T15:24:03;100081.94;;;17.20;nan
76864;BME280;65834;52.364;9.754;2023-03-17T15:26:35;100082.41;;;16.89;nan
76864;BME280;65834;52.364;9.754;2023-03-17T15:29:05;100089.19;;;16.87;nan
76864;BME280;65834;52.364;9.754;2023-03-17T15:31:35;100085.78;;;16.79;nan
76864;BME280;65834;52.364;9.754;2023-03-17T15:34:08;100084.00;;;16.62;nan
76864;BME280;65834;52.364;9.754;2023-03-17T15:36:38;100098.63;;;16.56;nan
76864;BME280;65834;52.364;9.754;2023-03-17T15:39:09;100094.47;;;16.42;nan
76864;BME280;65834;52.364;9.754;2023-03-17T15:41:38;100088.75;;;16.43;nan
76864;BME280;65834;52.364;9.754;2023-03-17T15:44:08;100085.44;;;16.30;nan
76864;BME280;65834;52.364;9.754;2023-03-17T15:46:38;100080.22;;;16.28;nan
76864;BME280;65834;52.364;9.754;2023-03-17T15:49:11;100073.59;;;16.24;nan
76864;BME280;65834;52.364;9.754;2023-03-17T15:51:40;100068.72;;;16.26;nan
76864;BME280;65834;52.364;9.754;2023-03-17T15:54:13;100070.13;;;16.17;nan
76864;BME280;65834;52.364;9.754;2023-03-17T15:56:43;100079.75;;;16.19;nan
76864;BME280;65834;52.364;9.754;2023-03-17T15:59:13;100075.13;;;16.08;nan
76864;BME280;65834;52.364;9.754;2023-03-17T16:01:42;100064.06;;;16.03;nan
76864;BME280;65834;52.364;9.754;2023-03-17T16:04:15;100068.94;;;15.90;nan
76864;BME280;65834;52.364;9.754;2023-03-17T16:06:45;100073.78;;;15.88;nan
76864;BME280;65834;52.364;9.754;2023-03-17T16:09:15;100075.81;;;15.92;nan
76864;BME280;65834;52.364;9.754;2023-03-17T16:11:45;100076.75;;;15.86;nan
76864;BME280;65834;52.364;9.754;2023-03-17T16:14:16;100066.91;;;15.85;nan
76864;BME280;65834;52.364;9.754;2023-03-17T16:16:45;100056.72;;;15.81;nan
76864;BME280;65834;52.364;9.754;2023-03-17T16:19:19;100060.97;;;15.65;nan
76864;BME280;65834;52.364;9.754;2023-03-17T16:21:50;100052.53;;;15.66;nan
76864;BME280;65834;52.364;9.754;2023-03-17T16:24:22;100057.97;;;15.55;nan
76864;BME280;65834;52.364;9.754;2023-03-17T16:26:52;100046.31;;;15.48;nan
76864;BME280;65834;52.364;9.754;2023-03-17T16:29:22;100044.13;;;15.38;nan
76864;BME280;65834;52.364;9.754;2023-03-17T16:31:51;100052.44;;;15.32;nan
76864;BME280;65834;52.364;9.754;2023-03-17T16:34:24;100046.63;;;15.28;nan
76864;BME280;65834;52.364;9.754;2023-03-17T16:36:53;100052.16;;;15.22;nan
76864;BME280;65834;52.364;9.754;2023-03-17T16:39:23;100040.03;;;15.17;nan
76864;BME280;65834;52.364;9.754;2023-03-17T16:41:53;100043.69;;;15.11;nan
76864;BME280;65834;52.364;9.754;2023-03-17T16:44:23;100044.03;;;15.03;nan
76864;BME280;65834;52.364;9.754;2023-03-17T16:46:52;100049.78;;;14.95;nan
76864;BME280;65834;52.364;9.754;2023-03-17T16:49:24;100054.03;;;14.91;nan
76864;BME280;65834;52.364;9.754;2023-03-17T16:51:54;100053.16;;;14.79;nan
76864;BME280;65834;52.364;9.754;2023-03-17T16:54:24;100054.88;;;14.74;nan
76864;BME280;65834;52.364;9.754;2023-03-17T16:56:56;100049.44;;;14.74;nan
76864;BME280;65834;52.364;9.754;2023-03-17T16:59:26;100051.19;;;14.68;nan
76864;BME280;65834;52.364;9.754;2023-03-17T17:01:57;100045.16;;;14.66;nan
76864;BME280;65834;52.364;9.754;2023-03-17T17:04:29;100052.09;;;14.62;nan
76864;BME280;65834;52.364;9.754;2023-03-17T17:07:02;100051.78;;;14.52;nan
76864;BME280;65834;52.364;9.754;2023-03-17T17:09:31;100060.66;;;14.47;nan
76864;BME280;65834;52.364;9.754;2023-03-17T17:12:01;100053.38;;;14.41;nan
76864;BME280;65834;52.364;9.754;2023-03-17T17:14:30;100056.19;;;14.35;nan
76864;BME280;65834;52.364;9.754;2023-03-17T17:17:00;100060.38;;;14.31;nan
76864;BME280;65834;52.364;9.754;2023-03-17T17:19:32;100052.75;;;14.21;nan
76864;BME280;65834;52.364;9.754;2023-03-17T17:22:02;100061.63;;;14.10;nan
76864;BME280;65834;52.364;9.754;2023-03-17T17:24:31;100065.19;;;14.10;nan
76864;BME280;65834;52.364;9.754;2023-03-17T17:27:01;100078.19;;;14.08;nan
76864;BME280;65834;52.364;9.754;2023-03-17T17:29:31;100068.22;;;14.02;nan
76864;BME280;65834;52.364;9.754;2023-03-17T17:32:00;100074.53;;;13.96;nan
76864;BME280;65834;52.364;9.754;2023-03-17T17:34:32;100081.66;;;13.91;nan
76864;BME280;65834;52.364;9.754;2023-03-17T17:37:02;100087.75;;;13.93;nan
76864;BME280;65834;52.364;9.754;2023-03-17T17:39:33;100091.09;;;13.88;nan
76864;BME280;65834;52.364;9.754;2023-03-17T17:42:03;100097.44;;;13.82;nan
76864;BME280;65834;52.364;9.754;2023-03-17T17:44:33;100101.63;;;13.78;nan
76864;BME280;65834;52.364;9.754;2023-03-17T23:37:23;99669.00;;;9.34;nan
76864;BME280;65834;52.364;9.754;2023-03-17T23:39:52;100116.97;;;11.87;nan
76864;BME280;65834;52.364;9.754;2023-03-17T23:42:22;100118.00;;;11.92;nan
76864;BME280;65834;52.364;9.754;2023-03-17T23:44:55;100111.31;;;11.88;nan
76864;BME280;65834;52.364;9.754;2023-03-17T23:47:24;100119.03;;;11.98;nan
76864;BME280;65834;52.364;9.754;2023-03-17T23:49:54;100111.34;;;12.02;nan
76864;BME280;65834;52.364;9.754;2023-03-17T23:52:24;100115.06;;;12.01;nan
76864;BME280;65834;52.364;9.754;2023-03-17T23:54:53;100123.63;;;11.98;nan
76864;BME280;65834;52.364;9.754;2023-03-17T23:57:23;100116.75;;;12.02;nan
76864;BME280;65834;52.364;9.754;2023-03-17T23:59:55;100120.91;;;12.04;nan
